createdAt,value
2023-05-24T00:00:34.851Z,8.10
2023-05-24T00:03:05.120Z,8.05
2023-05-24T00:05:33.957Z,5.85
2023-05-24T00:08:02.218Z,6.07
2023-05-24T00:10:30.349Z,6.45
2023-05-24T00:12:58.037Z,6.55
2023-05-24T00:15:26.417Z,6.18
2023-05-24T00:17:54.294Z,8.25
2023-05-24T00:20:22.606Z,8.88
2023-05-24T00:22:50.361Z,8.40
2023-05-24T00:25:18.280Z,6.50
2023-05-24T00:27:45.772Z,6.55
2023-05-24T00:30:14.264Z,4.80
2023-05-24T00:32:42.373Z,9.43
2023-05-24T00:35:10.538Z,12.77
2023-05-24T00:37:42.238Z,7.88
2023-05-24T00:40:11.092Z,5.57
2023-05-24T00:42:39.422Z,10.02
2023-05-24T00:45:08.531Z,5.20
2023-05-24T00:47:37.453Z,6.95
2023-05-24T00:50:05.672Z,5.55
2023-05-24T00:52:34.407Z,7.18
2023-05-24T00:55:03.229Z,6.82
2023-05-24T00:57:31.446Z,6.63
2023-05-24T01:00:00.247Z,5.78
2023-05-24T01:02:28.183Z,11.40
2023-05-24T01:04:56.527Z,10.32
2023-05-24T01:07:39.818Z,6.63
2023-05-24T01:10:17.974Z,6.97
2023-05-24T01:13:24.876Z,8.00
2023-05-24T01:16:11.846Z,7.43
2023-05-24T01:18:51.998Z,8.27
2023-05-24T01:21:38.880Z,9.32
2023-05-24T01:24:38.050Z,6.65
2023-05-24T01:27:08.035Z,8.02
2023-05-24T01:29:36.845Z,4.97
2023-05-24T01:32:05.957Z,5.40
2023-05-24T01:34:33.760Z,7.65
2023-05-24T01:37:01.219Z,5.40
2023-05-24T01:39:30.916Z,7.25
2023-05-24T01:42:37.318Z,6.55
2023-05-24T01:45:40.805Z,5.63
2023-05-24T01:48:28.397Z,7.28
2023-05-24T01:51:01.516Z,7.10
2023-05-24T01:53:51.540Z,3.72
2023-05-24T01:56:21.149Z,3.42
2023-05-24T01:58:53.282Z,8.30
2023-05-24T02:01:21.858Z,7.15
2023-05-24T02:03:51.466Z,6.38
2023-05-24T02:06:19.094Z,4.75
2023-05-24T02:08:46.940Z,4.70
2023-05-24T02:11:14.589Z,7.30
2023-05-24T02:13:42.237Z,4.57
2023-05-24T02:16:11.051Z,6.70
2023-05-24T02:18:38.983Z,5.85
2023-05-24T02:21:07.957Z,7.55
2023-05-24T02:23:35.668Z,4.95
2023-05-24T02:26:03.315Z,6.72
2023-05-24T02:28:32.564Z,4.28
2023-05-24T02:31:00.274Z,8.15
2023-05-24T02:33:30.207Z,9.65
2023-05-24T02:35:58.069Z,3.90
2023-05-24T02:38:25.800Z,6.70
2023-05-24T02:40:53.754Z,4.05
2023-05-24T02:43:21.756Z,6.38
2023-05-24T02:45:49.341Z,5.25
2023-05-24T02:48:17.374Z,5.82
2023-05-24T02:50:45.097Z,5.90
2023-05-24T02:53:12.905Z,3.92
2023-05-24T02:55:40.635Z,6.75
2023-05-24T02:58:08.518Z,5.75
2023-05-24T03:00:37.408Z,5.57
2023-05-24T03:03:05.558Z,6.97
2023-05-24T03:05:33.443Z,6.45
2023-05-24T03:08:01.378Z,5.13
2023-05-24T03:10:29.352Z,4.97
2023-05-24T03:12:56.906Z,5.57
2023-05-24T03:15:25.147Z,5.53
2023-05-24T03:17:53.601Z,6.97
2023-05-24T03:20:21.777Z,5.32
2023-05-24T03:22:49.354Z,8.27
2023-05-24T03:25:17.567Z,5.85
2023-05-24T03:27:45.940Z,6.28
2023-05-24T03:30:14.062Z,8.98
2023-05-24T03:32:51.074Z,9.57
2023-05-24T03:35:19.031Z,7.50
2023-05-24T03:37:48.657Z,7.22
2023-05-24T03:40:17.390Z,5.15
2023-05-24T03:42:53.812Z,3.33
2023-05-24T03:45:38.552Z,8.27
2023-05-24T03:48:07.774Z,6.10
2023-05-24T03:50:36.124Z,5.13
2023-05-24T03:53:04.184Z,3.75
2023-05-24T03:55:31.961Z,3.88
2023-05-24T03:57:59.805Z,8.38
2023-05-24T04:00:27.570Z,4.78
2023-05-24T04:03:21.568Z,6.65
2023-05-24T04:05:49.342Z,6.32
2023-05-24T04:08:16.939Z,5.22
2023-05-24T04:10:45.109Z,4.13
2023-05-24T04:13:13.462Z,5.55
2023-05-24T04:15:41.365Z,5.03
2023-05-24T04:18:09.328Z,4.45
2023-05-24T04:20:37.382Z,5.85
2023-05-24T04:23:05.248Z,5.32
2023-05-24T04:25:33.800Z,3.30
2023-05-24T04:28:03.715Z,9.98
2023-05-24T04:30:33.521Z,6.38
2023-05-24T04:33:01.211Z,5.45
2023-05-24T04:35:30.570Z,4.75
2023-05-24T04:37:59.943Z,5.63
2023-05-24T04:40:27.537Z,5.13
2023-05-24T04:42:55.414Z,9.52
2023-05-24T04:45:23.111Z,6.43
2023-05-24T04:47:50.672Z,5.90
2023-05-24T04:50:18.559Z,5.30
2023-05-24T04:52:46.110Z,4.82
2023-05-24T04:55:13.783Z,10.88
2023-05-24T04:57:41.489Z,6.70
2023-05-24T05:00:10.409Z,9.80
2023-05-24T05:02:38.571Z,10.35
2023-05-24T05:05:09.484Z,14.55
2023-05-24T05:07:38.677Z,4.97
2023-05-24T05:10:07.867Z,13.23
2023-05-24T05:12:35.519Z,10.75
2023-05-24T05:15:03.349Z,7.90
2023-05-24T05:17:31.208Z,9.05
2023-05-24T05:19:59.101Z,8.70
2023-05-24T05:22:26.624Z,11.02
2023-05-24T05:24:54.160Z,9.43
2023-05-24T05:27:21.699Z,9.35
2023-05-24T05:29:52.005Z,5.97
2023-05-24T05:32:20.188Z,8.70
2023-05-24T05:34:47.834Z,6.65
2023-05-24T05:37:15.493Z,7.75
2023-05-24T05:39:43.118Z,7.28
2023-05-24T05:42:10.701Z,7.30
2023-05-24T05:44:38.266Z,7.05
2023-05-24T05:47:07.616Z,5.03
2023-05-24T05:49:36.774Z,6.18
2023-05-24T05:52:06.187Z,9.00
2023-05-24T05:54:33.846Z,6.85
2023-05-24T05:57:01.779Z,7.07
2023-05-24T05:59:29.715Z,6.53
2023-05-24T06:01:57.627Z,10.98
2023-05-24T06:04:25.262Z,5.97
2023-05-24T06:06:52.796Z,11.27
2023-05-24T06:09:20.565Z,8.50
2023-05-24T06:11:48.426Z,9.90
2023-05-24T06:14:20.038Z,10.90
2023-05-24T06:16:48.203Z,12.93
2023-05-24T06:19:17.045Z,9.32
2023-05-24T06:21:50.875Z,13.32
2023-05-24T06:24:23.262Z,15.30
2023-05-24T06:26:53.561Z,15.52
2023-05-24T06:29:22.227Z,14.13
2023-05-24T06:31:50.867Z,24.63
2023-05-24T06:34:23.255Z,15.77
2023-05-24T06:36:53.212Z,11.68
2023-05-24T06:39:21.159Z,15.43
2023-05-24T06:41:51.638Z,15.65
2023-05-24T06:46:58.961Z,15.93
2023-05-24T06:49:26.959Z,16.10
2023-05-24T06:51:54.707Z,21.02
2023-05-24T06:54:22.575Z,24.05
2023-05-24T06:56:50.416Z,15.82
2023-05-24T06:59:17.798Z,19.73
2023-05-24T07:01:45.445Z,16.50
2023-05-24T07:04:13.843Z,18.88
2023-05-24T07:06:41.420Z,16.73
2023-05-24T07:09:10.595Z,23.45
2023-05-24T07:11:38.359Z,18.67
2023-05-24T07:14:06.081Z,16.25
2023-05-24T07:16:33.501Z,17.95
2023-05-24T07:19:03.224Z,10.85
2023-05-24T07:21:32.435Z,13.45
2023-05-24T07:23:59.992Z,12.57
2023-05-24T07:26:27.770Z,14.35
2023-05-24T07:28:55.285Z,14.05
2023-05-24T07:31:23.208Z,8.95
2023-05-24T07:33:50.740Z,11.27
2023-05-24T07:36:18.248Z,13.13
2023-05-24T07:38:47.432Z,16.38
2023-05-24T07:41:15.297Z,12.88
2023-05-24T07:43:43.186Z,9.77
2023-05-24T07:46:10.969Z,14.48
2023-05-24T07:48:38.710Z,15.68
2023-05-24T07:51:06.473Z,15.70
2023-05-24T07:53:34.967Z,8.48
2023-05-24T07:56:02.698Z,16.25
2023-05-24T07:58:30.539Z,12.95
2023-05-24T08:00:58.175Z,13.70
2023-05-24T08:03:26.225Z,10.82
2023-05-24T08:05:54.239Z,10.00
2023-05-24T08:08:21.797Z,19.33
2023-05-24T08:10:49.235Z,13.85
2023-05-24T08:13:17.029Z,9.93
2023-05-24T08:15:44.935Z,14.82
2023-05-24T08:18:12.747Z,8.60
2023-05-24T08:20:41.261Z,11.75
2023-05-24T08:23:09.008Z,9.63
2023-05-24T08:25:36.914Z,9.18
2023-05-24T08:28:04.526Z,10.30
2023-05-24T08:30:32.663Z,13.98
2023-05-24T08:33:00.292Z,8.90
2023-05-24T08:35:28.002Z,10.00
2023-05-24T08:37:56.659Z,8.30
2023-05-24T08:40:25.381Z,7.35
2023-05-24T08:42:54.263Z,11.85
2023-05-24T08:45:23.066Z,8.80
2023-05-24T08:47:52.353Z,8.88
2023-05-24T08:50:20.725Z,10.30
2023-05-24T08:52:49.482Z,8.50
2023-05-24T08:55:18.156Z,8.35
2023-05-24T08:57:47.195Z,10.32
2023-05-24T09:00:15.621Z,8.98
2023-05-24T09:02:46.274Z,8.13
2023-05-24T09:05:21.984Z,10.25
2023-05-24T09:07:51.493Z,10.65
2023-05-24T09:10:24.329Z,10.52
2023-05-24T09:12:58.100Z,10.95
2023-05-24T09:15:26.190Z,12.55
2023-05-24T09:17:54.000Z,9.70
2023-05-24T09:20:22.753Z,15.50
2023-05-24T09:22:56.042Z,7.03
2023-05-24T09:25:23.934Z,10.85
2023-05-24T09:27:52.931Z,12.20
2023-05-24T09:30:21.992Z,11.60
2023-05-24T09:33:00.969Z,11.57
2023-05-24T09:35:29.105Z,10.10
2023-05-24T09:38:00.180Z,8.70
2023-05-24T09:40:30.561Z,10.05
2023-05-24T09:43:10.039Z,10.07
2023-05-24T09:45:49.318Z,9.38
2023-05-24T09:48:17.923Z,11.38
2023-05-24T09:50:48.589Z,8.23
2023-05-24T09:53:19.526Z,10.25
2023-05-24T09:55:47.302Z,11.40
2023-05-24T09:58:17.473Z,7.90
2023-05-24T10:00:45.929Z,5.78
2023-05-24T10:03:15.437Z,11.88
2023-05-24T10:05:46.910Z,6.93
2023-05-24T10:08:15.086Z,8.55
2023-05-24T10:10:44.415Z,6.13
2023-05-24T10:13:16.192Z,10.85
2023-05-24T10:15:45.578Z,5.70
2023-05-24T10:18:14.318Z,9.32
2023-05-24T10:20:43.349Z,8.15
2023-05-24T10:23:16.659Z,7.10
2023-05-24T10:25:57.819Z,10.85
2023-05-24T10:28:27.096Z,6.75
2023-05-24T10:31:06.195Z,10.95
2023-05-24T10:33:37.989Z,5.85
2023-05-24T10:36:13.397Z,8.65
2023-05-24T10:38:41.520Z,6.80
2023-05-24T10:41:09.963Z,11.32
2023-05-24T10:43:38.673Z,6.00
2023-05-24T10:46:11.144Z,9.25
2023-05-24T10:48:41.082Z,5.68
2023-05-24T10:51:38.992Z,10.50
2023-05-24T10:54:19.130Z,12.05
2023-05-24T10:56:51.941Z,11.20
2023-05-24T10:59:38.119Z,9.30
2023-05-24T11:02:15.336Z,7.90
2023-05-24T11:04:47.252Z,5.28
2023-05-24T11:07:16.169Z,8.45
2023-05-24T11:09:47.286Z,8.80
2023-05-24T11:12:26.581Z,6.47
2023-05-24T11:14:54.652Z,8.80
2023-05-24T11:17:24.381Z,8.75
2023-05-24T11:19:54.743Z,10.02
2023-05-24T11:22:27.318Z,7.97
2023-05-24T11:24:55.062Z,8.38
2023-05-24T11:27:23.189Z,7.25
2023-05-24T11:29:50.863Z,9.18
2023-05-24T11:32:20.869Z,8.68
2023-05-24T11:34:49.824Z,8.82
2023-05-24T11:37:18.793Z,5.72
2023-05-24T11:39:54.219Z,7.57
2023-05-24T11:42:23.690Z,7.57
2023-05-24T11:44:52.238Z,7.00
2023-05-24T11:47:22.749Z,4.95
2023-05-24T11:49:52.253Z,10.38
2023-05-24T11:52:20.175Z,4.20
2023-05-24T11:54:47.817Z,6.53
2023-05-24T11:57:16.089Z,6.15
2023-05-24T11:59:43.608Z,5.90
2023-05-24T12:02:11.488Z,5.72
2023-05-24T12:04:39.576Z,4.57
2023-05-24T12:07:12.717Z,9.98
2023-05-24T12:09:40.391Z,5.65
2023-05-24T12:12:08.206Z,4.07
2023-05-24T12:14:36.549Z,2.80
2023-05-24T12:17:04.116Z,7.38
2023-05-24T12:19:36.969Z,6.70
2023-05-24T12:22:07.855Z,6.25
2023-05-24T12:24:37.524Z,8.35
2023-05-24T12:27:09.449Z,4.72
2023-05-24T12:29:41.186Z,6.05
2023-05-24T12:32:15.450Z,5.65
2023-05-24T12:34:45.282Z,4.03
2023-05-24T12:37:14.624Z,5.70
2023-05-24T12:39:43.871Z,5.72
2023-05-24T12:42:16.332Z,5.85
2023-05-24T12:44:45.278Z,6.30
2023-05-24T12:47:12.997Z,7.65
2023-05-24T12:49:40.646Z,3.80
2023-05-24T12:52:08.281Z,4.07
2023-05-24T12:54:35.938Z,8.15
2023-05-24T12:57:03.883Z,2.90
2023-05-24T12:59:31.711Z,5.03
2023-05-24T13:01:59.940Z,4.78
2023-05-24T13:04:34.002Z,3.00
2023-05-24T13:07:03.432Z,3.90
2023-05-24T13:09:31.321Z,3.47
2023-05-24T13:11:59.296Z,4.85
2023-05-24T13:14:27.743Z,4.55
2023-05-24T13:16:55.577Z,10.27
2023-05-24T13:19:23.240Z,3.97
2023-05-24T13:21:50.910Z,3.85
2023-05-24T13:24:18.964Z,6.72
2023-05-24T13:26:47.279Z,4.90
2023-05-24T13:31:45.628Z,5.28
2023-05-24T13:34:13.863Z,4.45
2023-05-24T13:36:44.001Z,4.10
2023-05-24T13:39:16.170Z,10.77
2023-05-24T13:41:45.369Z,8.27
2023-05-24T13:44:14.672Z,6.80
2023-05-24T13:46:42.869Z,4.43
2023-05-24T13:49:12.290Z,5.05
2023-05-24T13:51:40.941Z,3.67
2023-05-24T13:54:08.727Z,3.88
2023-05-24T13:56:37.002Z,5.25
2023-05-24T13:59:05.524Z,4.25
2023-05-24T14:01:36.079Z,5.40
2023-05-24T14:04:05.465Z,3.70
2023-05-24T14:06:34.465Z,4.30
2023-05-24T14:09:02.153Z,5.25
2023-05-24T14:11:31.959Z,4.10
2023-05-24T14:16:31.231Z,3.75
2023-05-24T14:18:59.177Z,2.88
2023-05-24T14:21:27.559Z,4.63
2023-05-24T14:23:55.694Z,5.15
2023-05-24T14:26:24.056Z,6.28
2023-05-24T14:28:55.267Z,6.45
2023-05-24T14:31:24.735Z,5.25
2023-05-24T14:33:52.544Z,4.70
2023-05-24T14:36:20.431Z,7.03
2023-05-24T14:38:48.096Z,5.90
2023-05-24T14:41:18.401Z,6.63
2023-05-24T14:43:49.177Z,6.43
2023-05-24T14:46:16.916Z,6.50
2023-05-24T14:48:44.784Z,6.18
2023-05-24T14:51:12.498Z,4.35
2023-05-24T14:53:40.129Z,6.28
2023-05-24T14:56:10.179Z,6.53
2023-05-24T14:58:37.900Z,6.53
2023-05-24T15:01:07.368Z,5.88
2023-05-24T15:03:36.385Z,4.40
2023-05-24T15:06:05.684Z,5.63
2023-05-24T15:08:35.517Z,3.83
2023-05-24T15:11:03.342Z,5.57
2023-05-24T15:13:31.477Z,6.00
2023-05-24T15:16:00.813Z,4.38
2023-05-24T15:18:31.863Z,3.63
2023-05-24T15:21:00.669Z,5.18
2023-05-24T15:23:28.805Z,4.28
2023-05-24T15:25:56.659Z,4.78
2023-05-24T15:28:26.426Z,5.47
2023-05-24T15:30:57.713Z,4.68
2023-05-24T15:33:26.882Z,5.20
2023-05-24T15:35:55.196Z,4.55
2023-05-24T15:38:24.411Z,6.25
2023-05-24T15:40:52.625Z,8.30
2023-05-24T15:43:20.977Z,3.47
2023-05-24T15:45:49.096Z,4.10
2023-05-24T15:48:16.724Z,6.75
2023-05-24T15:51:13.882Z,4.30
2023-05-24T15:53:32.927Z,4.68
2023-05-24T15:56:00.557Z,5.43
2023-05-24T15:58:28.482Z,7.18
2023-05-24T16:00:56.367Z,5.22
2023-05-24T16:03:24.114Z,13.18
2023-05-24T16:05:51.993Z,9.73
2023-05-24T16:08:19.803Z,13.13
2023-05-24T16:10:48.914Z,11.63
2023-05-24T16:13:16.820Z,10.07
2023-05-24T16:15:51.324Z,12.10
2023-05-24T16:18:23.520Z,8.70
2023-05-24T16:20:52.304Z,11.50
2023-05-24T16:23:23.363Z,14.88
2023-05-24T16:25:51.658Z,10.70
2023-05-24T16:28:24.117Z,17.67
2023-05-24T16:30:56.694Z,11.18
2023-05-24T16:33:25.732Z,15.35
2023-05-24T16:35:56.792Z,15.93
2023-05-24T16:38:26.415Z,15.68
2023-05-24T16:40:54.662Z,12.85
2023-05-24T16:43:25.189Z,19.30
2023-05-24T16:45:52.877Z,15.18
2023-05-24T16:48:21.954Z,6.45
2023-05-24T16:50:51.865Z,16.38
2023-05-24T16:53:23.096Z,15.85
2023-05-24T16:55:54.214Z,12.48
2023-05-24T16:58:23.433Z,11.45
2023-05-24T17:00:51.527Z,15.43
2023-05-24T17:03:22.312Z,10.45
2023-05-24T17:05:58.029Z,12.68
2023-05-24T17:08:28.199Z,13.05
2023-05-24T17:10:57.376Z,10.38
2023-05-24T17:13:29.307Z,12.27
2023-05-24T17:15:58.074Z,11.57
2023-05-24T17:18:29.741Z,9.20
2023-05-24T17:21:07.059Z,17.25
2023-05-24T17:23:40.152Z,10.10
2023-05-24T17:26:11.799Z,10.38
2023-05-24T17:28:39.678Z,14.85
2023-05-24T17:31:11.912Z,13.50
2023-05-24T17:33:39.523Z,9.57
2023-05-24T17:36:07.498Z,12.82
2023-05-24T17:38:38.093Z,8.38
2023-05-24T17:41:10.103Z,11.63
2023-05-24T17:43:40.347Z,12.75
2023-05-24T17:46:08.247Z,16.92
2023-05-24T17:48:40.921Z,19.02
2023-05-24T17:51:10.346Z,15.07
2023-05-24T17:53:38.621Z,13.93
2023-05-24T17:56:08.033Z,13.70
2023-05-24T17:58:37.201Z,17.00
2023-05-24T18:01:10.624Z,14.93
2023-05-24T18:03:41.057Z,18.27
2023-05-24T18:06:10.103Z,16.85
2023-05-24T18:08:43.364Z,15.30
2023-05-24T18:11:13.869Z,12.52
2023-05-24T18:13:46.048Z,13.75
2023-05-24T18:16:15.618Z,13.90
2023-05-24T18:18:44.526Z,13.30
2023-05-24T18:21:13.393Z,9.68
2023-05-24T18:23:41.767Z,11.95
2023-05-24T18:26:12.014Z,10.48
2023-05-24T18:28:41.680Z,11.52
2023-05-24T18:31:15.188Z,7.13
2023-05-24T18:33:43.286Z,15.07
2023-05-24T18:36:13.034Z,12.48
2023-05-24T18:38:40.842Z,12.60
2023-05-24T18:41:12.553Z,9.68
2023-05-24T18:43:43.215Z,11.75
2023-05-24T18:46:15.328Z,9.90
2023-05-24T18:48:43.609Z,14.75
2023-05-24T18:51:11.713Z,18.13
2023-05-24T18:53:40.265Z,9.65
2023-05-24T18:56:08.071Z,14.73
2023-05-24T18:58:36.111Z,13.95
2023-05-24T19:01:04.206Z,11.13
2023-05-24T19:03:31.971Z,10.25
2023-05-24T19:06:00.738Z,15.70
2023-05-24T19:08:29.404Z,9.65
2023-05-24T19:10:57.983Z,11.40
2023-05-24T19:13:28.053Z,10.15
2023-05-24T19:15:57.553Z,9.77
2023-05-24T19:18:25.461Z,9.77
2023-05-24T19:20:53.130Z,15.65
2023-05-24T19:23:21.934Z,7.05
2023-05-24T19:25:50.804Z,9.40
2023-05-24T19:28:18.880Z,11.85
2023-05-24T19:30:46.809Z,10.68
2023-05-24T19:33:14.948Z,14.30
2023-05-24T19:35:43.119Z,13.55
2023-05-24T19:38:11.165Z,14.65
2023-05-24T19:40:38.698Z,21.55
2023-05-24T19:43:06.764Z,16.45
2023-05-24T19:45:34.377Z,11.98
2023-05-24T19:48:02.460Z,18.58
2023-05-24T19:50:32.164Z,12.02
2023-05-24T19:53:00.420Z,16.55
2023-05-24T19:55:28.405Z,10.52
2023-05-24T19:57:56.659Z,14.40
2023-05-24T20:00:24.812Z,13.45
2023-05-24T20:02:52.771Z,11.48
2023-05-24T20:05:21.419Z,17.67
2023-05-24T20:07:49.020Z,16.35
2023-05-24T20:10:16.732Z,21.48
2023-05-24T20:12:44.297Z,17.92
2023-05-24T20:15:16.677Z,13.80
2023-05-24T20:17:45.906Z,13.57
2023-05-24T20:20:13.995Z,9.48
2023-05-24T20:22:42.127Z,12.40
2023-05-24T20:25:10.031Z,10.30
2023-05-24T20:27:41.303Z,16.10
2023-05-24T20:30:13.397Z,16.63
2023-05-24T20:32:41.153Z,10.32
2023-05-24T20:35:10.631Z,12.23
2023-05-24T20:37:38.562Z,16.35
2023-05-24T20:40:10.619Z,11.25
2023-05-24T20:42:38.734Z,15.75
2023-05-24T20:45:07.381Z,11.75
2023-05-24T20:47:36.136Z,7.07
2023-05-24T20:50:04.792Z,13.60
2023-05-24T20:52:32.593Z,10.77
2023-05-24T20:55:03.079Z,21.40
2023-05-24T20:57:31.162Z,26.30
2023-05-24T20:59:59.692Z,33.22
2023-05-24T21:02:30.973Z,44.30
2023-05-24T21:04:59.602Z,37.05
2023-05-24T21:07:27.921Z,41.88
2023-05-24T21:09:55.549Z,43.35
2023-05-24T21:12:23.333Z,48.58
2023-05-24T21:14:55.315Z,45.55
2023-05-24T21:17:23.287Z,45.60
2023-05-24T21:19:51.269Z,45.97
2023-05-24T21:22:18.990Z,41.97
2023-05-24T21:24:46.592Z,39.67
2023-05-24T21:27:14.373Z,37.63
2023-05-24T21:29:42.325Z,36.13
2023-05-24T21:32:10.554Z,36.88
2023-05-24T21:34:38.682Z,32.47
2023-05-24T21:37:09.185Z,33.65
2023-05-24T21:39:37.582Z,35.05
2023-05-24T21:42:07.292Z,33.47
2023-05-24T21:44:34.879Z,27.13
2023-05-24T21:47:03.229Z,30.08
2023-05-24T21:49:31.557Z,28.00
2023-05-24T21:51:59.490Z,24.88
2023-05-24T21:54:27.348Z,23.38
2023-05-24T21:56:57.932Z,26.70
2023-05-24T21:59:27.253Z,33.95
2023-05-24T22:01:55.025Z,38.33
2023-05-24T22:04:23.535Z,52.30
2023-05-24T22:06:51.756Z,41.42
2023-05-24T22:09:19.638Z,40.40
2023-05-24T22:11:47.164Z,35.25
2023-05-24T22:14:14.714Z,35.63
2023-05-24T22:16:42.765Z,32.80
2023-05-24T22:19:18.435Z,29.27
2023-05-24T22:21:52.319Z,29.58
2023-05-24T22:24:20.283Z,30.33
2023-05-24T22:26:48.237Z,29.25
2023-05-24T22:29:16.411Z,28.92
2023-05-24T22:31:44.126Z,29.83
2023-05-24T22:34:15.081Z,23.73
2023-05-24T22:36:43.249Z,26.70
2023-05-24T22:39:12.106Z,27.25
2023-05-24T22:41:40.187Z,29.35
2023-05-24T22:44:08.775Z,25.42
2023-05-24T22:46:36.976Z,23.63
2023-05-24T22:49:06.674Z,21.85
2023-05-24T22:51:34.586Z,23.77
2023-05-24T22:54:02.813Z,28.00
2023-05-24T22:56:32.665Z,25.27
2023-05-24T22:59:01.463Z,23.95
2023-05-24T23:01:29.842Z,21.70
2023-05-24T23:04:11.500Z,18.17
2023-05-24T23:06:46.057Z,21.48
2023-05-24T23:09:14.110Z,19.05
2023-05-24T23:11:43.166Z,19.13
2023-05-24T23:14:11.708Z,22.42
2023-05-24T23:16:45.912Z,17.70
2023-05-24T23:19:18.674Z,15.77
2023-05-24T23:21:47.272Z,17.38
2023-05-24T23:24:16.384Z,19.08
2023-05-24T23:26:44.721Z,15.88
2023-05-24T23:29:12.288Z,14.32
2023-05-24T23:31:39.938Z,16.48
2023-05-24T23:34:10.554Z,12.88
2023-05-24T23:36:38.551Z,13.52
2023-05-24T23:39:06.477Z,16.65
2023-05-24T23:41:35.357Z,14.02
2023-05-24T23:44:03.792Z,13.15
2023-05-24T23:46:31.784Z,17.65
2023-05-24T23:49:00.734Z,14.57
2023-05-24T23:51:34.025Z,13.27
2023-05-24T23:54:02.805Z,10.63
2023-05-24T23:56:30.854Z,10.20
2023-05-24T23:59:00.171Z,13.63
